createdAt,value
2023-11-23T00:00:03.367Z,30.82
2023-11-23T00:01:06.810Z,31.48
2023-11-23T00:02:09.673Z,30.95
2023-11-23T00:03:12.519Z,30.80
2023-11-23T00:04:15.207Z,31.40
2023-11-23T00:05:18.247Z,30.47
2023-11-23T00:06:20.943Z,31.40
2023-11-23T00:07:24.880Z,33.73
2023-11-23T00:08:27.833Z,31.20
2023-11-23T00:09:30.459Z,30.77
2023-11-23T00:10:33.090Z,31.30
2023-11-23T00:11:35.716Z,31.90
2023-11-23T00:12:38.375Z,32.05
2023-11-23T00:13:41.103Z,32.28
2023-11-23T00:14:43.740Z,32.43
2023-11-23T00:15:46.378Z,31.03
2023-11-23T00:16:49.119Z,31.30
2023-11-23T00:17:51.852Z,31.23
2023-11-23T00:18:54.584Z,29.98
2023-11-23T00:19:57.779Z,30.25
2023-11-23T00:21:00.503Z,31.77
2023-11-23T00:22:03.178Z,31.38
2023-11-23T00:23:05.840Z,29.17
2023-11-23T00:24:08.932Z,30.17
2023-11-23T00:25:13.398Z,31.30
2023-11-23T00:26:16.210Z,30.40
2023-11-23T00:27:19.047Z,30.50
2023-11-23T00:28:21.778Z,29.98
2023-11-23T00:29:24.463Z,29.70
2023-11-23T00:30:27.055Z,28.57
2023-11-23T00:31:29.735Z,30.37
2023-11-23T00:32:33.389Z,31.27
2023-11-23T00:33:36.135Z,31.60
2023-11-23T00:34:39.420Z,30.57
2023-11-23T00:35:42.756Z,30.65
2023-11-23T00:36:45.909Z,30.30
2023-11-23T00:37:48.576Z,30.45
2023-11-23T00:38:51.271Z,31.60
2023-11-23T00:39:54.027Z,31.07
2023-11-23T00:40:56.700Z,30.90
2023-11-23T00:41:59.599Z,30.77
2023-11-23T00:43:02.219Z,31.80
2023-11-23T00:44:05.890Z,30.85
2023-11-23T00:45:09.103Z,30.45
2023-11-23T00:46:13.951Z,29.47
2023-11-23T00:47:16.643Z,30.27
2023-11-23T00:48:19.386Z,29.90
2023-11-23T00:49:23.131Z,31.55
2023-11-23T00:50:25.809Z,32.30
2023-11-23T00:51:28.499Z,30.95
2023-11-23T00:52:31.125Z,31.95
2023-11-23T00:53:33.761Z,31.12
2023-11-23T00:54:40.826Z,30.50
2023-11-23T00:55:43.542Z,30.90
2023-11-23T00:56:46.378Z,30.25
2023-11-23T00:57:49.124Z,30.62
2023-11-23T00:58:54.532Z,30.22
2023-11-23T00:59:57.468Z,30.87
2023-11-23T01:01:00.282Z,30.57
2023-11-23T01:02:03.598Z,31.45
2023-11-23T01:03:07.933Z,31.38
2023-11-23T01:04:10.793Z,30.98
2023-11-23T01:05:16.402Z,31.43
2023-11-23T01:06:19.111Z,32.53
2023-11-23T01:07:21.706Z,30.30
2023-11-23T01:08:24.363Z,30.87
2023-11-23T01:09:27.465Z,31.95
2023-11-23T01:10:30.126Z,31.62
2023-11-23T01:11:32.782Z,31.00
2023-11-23T01:12:35.443Z,30.93
2023-11-23T01:13:38.700Z,30.42
2023-11-23T01:14:41.471Z,31.38
2023-11-23T01:15:44.089Z,31.93
2023-11-23T01:16:47.229Z,31.67
2023-11-23T01:17:49.924Z,31.35
2023-11-23T01:18:52.612Z,31.95
2023-11-23T01:19:55.242Z,31.93
2023-11-23T01:20:58.553Z,31.58
2023-11-23T01:22:22.028Z,33.00
2023-11-23T01:23:24.864Z,31.67
2023-11-23T01:24:48.609Z,32.67
2023-11-23T01:25:51.331Z,31.25
2023-11-23T01:26:54.027Z,31.75
2023-11-23T01:27:56.707Z,31.33
2023-11-23T01:28:59.387Z,31.82
2023-11-23T01:30:02.307Z,31.87
2023-11-23T01:31:05.690Z,29.92
2023-11-23T01:32:09.240Z,30.42
2023-11-23T01:33:13.063Z,31.30
2023-11-23T01:34:15.937Z,30.67
2023-11-23T01:35:21.793Z,28.60
2023-11-23T01:36:24.512Z,31.10
2023-11-23T01:37:27.152Z,32.13
2023-11-23T01:38:29.881Z,30.43
2023-11-23T01:39:32.493Z,31.58
2023-11-23T01:40:35.111Z,30.43
2023-11-23T01:41:37.734Z,29.67
2023-11-23T01:42:40.407Z,30.35
2023-11-23T01:43:46.893Z,30.27
2023-11-23T01:44:49.647Z,29.42
2023-11-23T01:45:52.340Z,28.80
2023-11-23T01:46:54.973Z,30.28
2023-11-23T01:47:57.785Z,29.83
2023-11-23T01:49:03.142Z,29.15
2023-11-23T01:50:06.673Z,29.08
2023-11-23T01:51:10.886Z,29.03
2023-11-23T01:52:13.650Z,28.55
2023-11-23T01:53:17.089Z,28.48
2023-11-23T01:54:20.006Z,28.48
2023-11-23T01:55:22.728Z,28.42
2023-11-23T01:56:27.387Z,29.82
2023-11-23T01:57:34.963Z,29.20
2023-11-23T01:58:38.166Z,30.55
2023-11-23T01:59:40.897Z,29.18
2023-11-23T02:00:43.997Z,29.10
2023-11-23T02:01:46.862Z,28.78
2023-11-23T02:02:49.967Z,28.48
2023-11-23T02:03:53.061Z,29.53
2023-11-23T02:04:59.506Z,28.28
2023-11-23T02:06:02.392Z,27.92
2023-11-23T02:07:07.058Z,28.05
2023-11-23T02:08:09.732Z,28.48
2023-11-23T02:09:12.548Z,29.60
2023-11-23T02:10:16.102Z,29.40
2023-11-23T02:11:18.759Z,29.87
2023-11-23T02:12:22.420Z,28.93
2023-11-23T02:13:25.492Z,29.38
2023-11-23T02:14:28.699Z,29.27
2023-11-23T02:15:31.947Z,29.47
2023-11-23T02:16:35.719Z,28.73
2023-11-23T02:17:38.429Z,28.97
2023-11-23T02:18:41.190Z,29.78
2023-11-23T02:19:45.161Z,29.65
2023-11-23T02:20:48.147Z,28.62
2023-11-23T02:21:50.814Z,29.72
2023-11-23T02:22:53.496Z,29.47
2023-11-23T02:23:56.256Z,27.92
2023-11-23T02:24:58.903Z,28.48
2023-11-23T02:26:02.604Z,29.53
2023-11-23T02:27:05.411Z,29.80
2023-11-23T02:28:09.064Z,29.25
2023-11-23T02:29:11.806Z,28.03
2023-11-23T02:30:14.979Z,28.87
2023-11-23T02:31:17.781Z,27.40
2023-11-23T02:32:20.474Z,28.80
2023-11-23T02:33:23.182Z,28.73
2023-11-23T02:34:26.148Z,29.08
2023-11-23T02:35:29.382Z,28.48
2023-11-23T02:36:32.095Z,29.90
2023-11-23T02:37:34.714Z,29.35
2023-11-23T02:38:37.425Z,29.27
2023-11-23T02:39:44.590Z,28.58
2023-11-23T02:40:47.318Z,29.05
2023-11-23T02:41:50.009Z,28.85
2023-11-23T02:42:52.670Z,29.85
2023-11-23T02:43:55.297Z,29.67
2023-11-23T02:44:58.064Z,28.83
2023-11-23T02:46:00.791Z,28.58
2023-11-23T02:47:03.558Z,30.23
2023-11-23T02:48:06.473Z,31.32
2023-11-23T02:49:10.578Z,30.00
2023-11-23T02:50:13.197Z,30.13
2023-11-23T02:51:16.074Z,29.52
2023-11-23T02:52:18.855Z,30.25
2023-11-23T02:53:33.062Z,29.43
2023-11-23T02:54:35.684Z,29.85
2023-11-23T02:55:38.298Z,29.25
2023-11-23T02:56:41.059Z,29.50
2023-11-23T02:57:43.744Z,29.57
2023-11-23T02:58:48.030Z,28.00
2023-11-23T02:59:51.525Z,29.73
2023-11-23T03:00:54.260Z,30.38
2023-11-23T03:01:57.098Z,29.07
2023-11-23T03:02:59.890Z,28.33
2023-11-23T03:04:02.777Z,29.37
2023-11-23T03:05:06.266Z,27.72
2023-11-23T03:06:09.301Z,29.22
2023-11-23T03:07:11.953Z,28.92
2023-11-23T03:08:14.627Z,30.20
2023-11-23T03:09:20.763Z,28.60
2023-11-23T03:10:23.563Z,29.35
2023-11-23T03:11:27.581Z,29.12
2023-11-23T03:12:30.345Z,27.52
2023-11-23T03:13:33.012Z,28.65
2023-11-23T03:14:35.908Z,28.77
2023-11-23T03:15:38.529Z,28.30
2023-11-23T03:16:42.828Z,29.33
2023-11-23T03:17:45.517Z,27.50
2023-11-23T03:18:48.464Z,28.42
2023-11-23T03:19:51.258Z,29.12
2023-11-23T03:20:53.984Z,28.88
2023-11-23T03:21:56.887Z,30.30
2023-11-23T03:22:59.715Z,29.72
2023-11-23T03:24:02.459Z,28.87
2023-11-23T03:25:05.494Z,27.63
2023-11-23T03:26:08.075Z,28.15
2023-11-23T03:27:10.855Z,28.43
2023-11-23T03:28:14.016Z,29.42
2023-11-23T03:29:16.751Z,30.20
2023-11-23T03:30:19.617Z,29.25
2023-11-23T03:31:22.258Z,30.07
2023-11-23T03:32:26.620Z,31.13
2023-11-23T03:33:29.371Z,29.47
2023-11-23T03:34:32.637Z,29.35
2023-11-23T03:35:35.267Z,29.85
2023-11-23T03:36:37.988Z,28.73
2023-11-23T03:37:40.620Z,29.98
2023-11-23T03:38:43.434Z,29.08
2023-11-23T03:39:46.762Z,29.33
2023-11-23T03:40:49.411Z,28.18
2023-11-23T03:41:52.098Z,28.27
2023-11-23T03:42:54.818Z,29.05
2023-11-23T03:43:58.884Z,30.18
2023-11-23T03:45:01.591Z,28.95
2023-11-23T03:46:04.294Z,27.72
2023-11-23T03:47:07.029Z,28.85
2023-11-23T03:48:09.680Z,28.93
2023-11-23T03:49:12.387Z,29.68
2023-11-23T03:50:15.316Z,29.88
2023-11-23T03:51:18.016Z,28.60
2023-11-23T03:52:20.705Z,29.27
2023-11-23T03:53:23.310Z,29.17
2023-11-23T03:54:26.039Z,27.82
2023-11-23T03:55:29.777Z,30.43
2023-11-23T03:56:32.455Z,31.03
2023-11-23T03:57:35.515Z,30.13
2023-11-23T03:58:38.125Z,30.58
2023-11-23T03:59:40.751Z,30.85
2023-11-23T04:00:44.223Z,28.92
2023-11-23T04:01:48.939Z,29.73
2023-11-23T04:02:51.691Z,28.98
2023-11-23T04:03:54.408Z,29.43
2023-11-23T04:04:57.110Z,29.98
2023-11-23T04:05:59.947Z,28.53
2023-11-23T04:07:02.656Z,28.02
2023-11-23T04:08:06.357Z,28.87
2023-11-23T04:09:12.535Z,29.65
2023-11-23T04:10:15.924Z,30.70
2023-11-23T04:11:18.600Z,28.55
2023-11-23T04:12:21.251Z,30.73
2023-11-23T04:13:23.997Z,29.72
2023-11-23T04:14:29.324Z,30.87
2023-11-23T04:15:31.995Z,43.28
2023-11-23T04:16:34.705Z,54.02
2023-11-23T04:17:37.382Z,47.47
2023-11-23T04:18:43.126Z,47.28
2023-11-23T04:19:46.082Z,47.53
2023-11-23T04:20:48.734Z,46.82
2023-11-23T04:21:51.386Z,51.75
2023-11-23T04:22:53.961Z,52.02
2023-11-23T04:23:56.624Z,48.97
2023-11-23T04:24:59.620Z,42.93
2023-11-23T04:26:02.427Z,38.20
2023-11-23T04:27:05.399Z,34.73
2023-11-23T04:28:08.174Z,33.13
2023-11-23T04:29:11.605Z,31.45
2023-11-23T04:30:14.450Z,31.53
2023-11-23T04:31:17.081Z,30.12
2023-11-23T04:32:19.753Z,29.82
2023-11-23T04:33:24.618Z,30.07
2023-11-23T04:34:28.867Z,30.37
2023-11-23T04:35:31.540Z,28.90
2023-11-23T04:36:35.364Z,29.98
2023-11-23T04:37:38.105Z,30.57
2023-11-23T04:38:40.734Z,29.83
2023-11-23T04:39:43.395Z,30.17
2023-11-23T04:40:46.103Z,28.75
2023-11-23T04:41:48.777Z,29.80
2023-11-23T04:42:51.450Z,30.60
2023-11-23T04:43:54.060Z,30.58
2023-11-23T04:44:56.740Z,29.67
2023-11-23T04:45:59.349Z,30.53
2023-11-23T04:47:01.968Z,27.30
2023-11-23T04:48:05.195Z,27.88
2023-11-23T04:49:07.837Z,29.82
2023-11-23T04:50:10.545Z,29.92
2023-11-23T04:51:13.219Z,28.83
2023-11-23T04:52:15.843Z,29.02
2023-11-23T04:53:19.248Z,29.10
2023-11-23T04:54:21.958Z,29.55
2023-11-23T04:55:24.725Z,29.17
2023-11-23T04:56:27.502Z,30.13
2023-11-23T04:57:30.173Z,28.90
2023-11-23T04:58:32.899Z,29.65
2023-11-23T04:59:35.532Z,29.25
2023-11-23T05:00:38.229Z,29.17
2023-11-23T05:01:40.919Z,29.53
2023-11-23T05:02:44.827Z,28.93
2023-11-23T05:03:47.914Z,30.15
2023-11-23T05:04:50.664Z,31.27
2023-11-23T05:05:53.403Z,30.52
2023-11-23T05:06:59.170Z,30.52
2023-11-23T05:08:01.798Z,30.78
2023-11-23T05:09:04.739Z,30.20
2023-11-23T05:10:09.434Z,29.60
2023-11-23T05:11:13.281Z,29.42
2023-11-23T05:12:16.001Z,29.42
2023-11-23T05:13:18.654Z,29.12
2023-11-23T05:14:21.284Z,28.45
2023-11-23T05:15:23.928Z,29.55
2023-11-23T05:16:26.631Z,28.63
2023-11-23T05:17:31.370Z,29.70
2023-11-23T05:18:34.110Z,27.75
2023-11-23T05:19:42.620Z,27.82
2023-11-23T05:20:46.094Z,27.52
2023-11-23T05:21:48.752Z,28.43
2023-11-23T05:22:52.460Z,28.28
2023-11-23T05:23:55.126Z,29.62
2023-11-23T05:24:57.854Z,28.25
2023-11-23T05:26:00.641Z,27.05
2023-11-23T05:27:03.342Z,28.20
2023-11-23T05:28:05.974Z,27.50
2023-11-23T05:29:08.604Z,28.88
2023-11-23T05:30:13.221Z,27.07
2023-11-23T05:31:15.933Z,28.28
2023-11-23T05:32:18.588Z,28.95
2023-11-23T05:33:23.862Z,28.18
2023-11-23T05:34:28.060Z,27.55
2023-11-23T05:35:31.384Z,28.90
2023-11-23T05:36:34.028Z,30.15
2023-11-23T05:37:36.671Z,30.13
2023-11-23T05:38:39.583Z,30.38
2023-11-23T05:39:44.126Z,29.85
2023-11-23T05:40:47.380Z,29.38
2023-11-23T05:41:50.018Z,29.08
2023-11-23T05:42:58.229Z,27.92
2023-11-23T05:44:07.559Z,28.55
2023-11-23T05:45:10.696Z,28.93
2023-11-23T05:46:14.871Z,29.63
2023-11-23T05:47:17.824Z,28.98
2023-11-23T05:48:20.581Z,29.17
2023-11-23T05:49:23.284Z,28.35
2023-11-23T05:50:25.894Z,28.27
2023-11-23T05:51:29.463Z,27.42
2023-11-23T05:52:32.203Z,29.83
2023-11-23T05:53:34.803Z,28.73
2023-11-23T05:54:38.727Z,27.83
2023-11-23T05:55:41.464Z,28.50
2023-11-23T05:56:45.235Z,29.15
2023-11-23T05:57:47.880Z,27.42
2023-11-23T05:58:50.915Z,28.33
2023-11-23T05:59:53.599Z,29.03
2023-11-23T06:01:03.686Z,30.15
2023-11-23T06:02:12.671Z,34.65
2023-11-23T06:03:15.586Z,32.53
2023-11-23T06:04:18.834Z,39.17
2023-11-23T06:05:21.681Z,55.23
2023-11-23T06:06:25.121Z,52.52
2023-11-23T06:07:27.772Z,43.58
2023-11-23T06:08:30.425Z,38.65
2023-11-23T06:09:33.136Z,36.80
2023-11-23T06:10:35.784Z,38.37
2023-11-23T06:11:38.685Z,34.68
2023-11-23T06:12:41.710Z,31.78
2023-11-23T06:13:45.956Z,32.12
2023-11-23T06:14:48.826Z,32.93
2023-11-23T06:15:52.122Z,30.77
2023-11-23T06:16:54.789Z,31.47
2023-11-23T06:18:07.540Z,33.52
2023-11-23T06:19:16.562Z,30.93
2023-11-23T06:20:19.796Z,32.85
2023-11-23T06:21:22.931Z,31.73
2023-11-23T06:22:25.604Z,32.25
2023-11-23T06:23:29.868Z,30.67
2023-11-23T06:24:32.469Z,31.62
2023-11-23T06:25:35.091Z,31.72
2023-11-23T06:26:37.700Z,30.63
2023-11-23T06:27:40.278Z,32.27
2023-11-23T06:28:42.875Z,30.70
2023-11-23T06:29:45.633Z,30.37
2023-11-23T06:30:48.249Z,30.90
2023-11-23T06:31:51.544Z,29.63
2023-11-23T06:32:54.357Z,31.12
2023-11-23T06:33:57.120Z,30.77
2023-11-23T06:34:59.931Z,30.92
2023-11-23T06:36:02.648Z,30.55
2023-11-23T06:37:07.995Z,30.52
2023-11-23T06:38:10.719Z,29.17
2023-11-23T06:39:13.468Z,29.30
2023-11-23T06:40:18.636Z,30.23
2023-11-23T06:41:26.807Z,30.47
2023-11-23T06:42:30.912Z,29.58
2023-11-23T06:43:33.809Z,29.72
2023-11-23T06:44:38.367Z,29.25
2023-11-23T06:45:41.237Z,29.63
2023-11-23T06:46:44.078Z,30.17
2023-11-23T06:47:46.828Z,29.80
2023-11-23T06:48:49.955Z,29.78
2023-11-23T06:49:53.456Z,29.40
2023-11-23T06:50:57.019Z,30.43
2023-11-23T06:52:00.245Z,28.82
2023-11-23T06:53:03.539Z,28.98
2023-11-23T06:54:07.482Z,29.60
2023-11-23T06:55:11.248Z,28.58
2023-11-23T06:56:15.454Z,29.05
2023-11-23T06:57:18.210Z,27.10
2023-11-23T06:58:22.454Z,30.73
2023-11-23T06:59:25.157Z,32.62
2023-11-23T07:00:27.862Z,28.65
2023-11-23T07:01:30.560Z,30.35
2023-11-23T07:02:33.372Z,34.57
2023-11-23T07:03:39.540Z,29.75
2023-11-23T07:04:42.638Z,47.07
2023-11-23T07:05:45.319Z,36.18
2023-11-23T07:06:48.172Z,31.83
2023-11-23T07:07:51.470Z,33.63
2023-11-23T07:08:55.336Z,31.72
2023-11-23T07:09:58.014Z,31.13
2023-11-23T07:11:01.267Z,28.52
2023-11-23T07:12:04.297Z,30.03
2023-11-23T07:13:06.999Z,31.08
2023-11-23T07:14:09.652Z,41.03
2023-11-23T07:15:13.619Z,48.98
2023-11-23T07:16:16.526Z,39.32
2023-11-23T07:17:19.164Z,41.85
2023-11-23T07:18:22.024Z,43.13
2023-11-23T07:19:24.836Z,30.88
2023-11-23T07:20:27.695Z,29.95
2023-11-23T07:21:30.918Z,42.82
2023-11-23T07:22:34.448Z,31.53
2023-11-23T07:23:37.802Z,29.00
2023-11-23T07:24:40.538Z,28.92
2023-11-23T07:25:46.654Z,33.13
2023-11-23T07:26:51.260Z,32.08
2023-11-23T07:27:54.086Z,28.82
2023-11-23T07:28:56.667Z,28.87
2023-11-23T07:29:59.868Z,29.80
2023-11-23T07:31:02.777Z,29.95
2023-11-23T07:32:06.145Z,27.75
2023-11-23T07:33:09.410Z,33.72
2023-11-23T07:34:12.041Z,33.60
2023-11-23T07:35:14.759Z,33.07
2023-11-23T07:36:17.999Z,32.00
2023-11-23T07:37:20.971Z,30.70
2023-11-23T07:38:23.913Z,33.65
2023-11-23T07:39:27.080Z,32.88
2023-11-23T07:40:29.987Z,30.70
2023-11-23T07:41:32.889Z,31.63
2023-11-23T07:42:35.884Z,29.98
2023-11-23T07:43:39.537Z,29.83
2023-11-23T07:44:42.507Z,28.75
2023-11-23T07:45:45.264Z,28.67
2023-11-23T07:46:48.732Z,30.90
2023-11-23T07:47:51.592Z,30.57
2023-11-23T07:48:54.550Z,29.78
2023-11-23T07:49:59.074Z,29.30
2023-11-23T07:51:01.768Z,29.30
2023-11-23T07:52:04.772Z,28.72
2023-11-23T07:53:08.787Z,26.67
2023-11-23T07:54:11.398Z,26.70
2023-11-23T07:55:19.816Z,30.45
2023-11-23T07:56:22.505Z,29.62
2023-11-23T07:57:25.170Z,28.68
2023-11-23T07:58:27.952Z,27.27
2023-11-23T07:59:30.844Z,27.50
2023-11-23T08:00:33.637Z,28.38
2023-11-23T08:01:36.534Z,28.47
2023-11-23T08:02:39.110Z,28.68
2023-11-23T08:03:41.995Z,27.80
2023-11-23T08:04:45.579Z,28.42
2023-11-23T08:05:49.233Z,27.52
2023-11-23T08:06:53.174Z,27.50
2023-11-23T08:07:55.911Z,28.43
2023-11-23T08:08:58.702Z,29.48
2023-11-23T08:10:01.347Z,29.35
2023-11-23T08:11:04.700Z,28.37
2023-11-23T08:12:07.689Z,28.18
2023-11-23T08:13:10.342Z,29.07
2023-11-23T08:14:14.305Z,28.32
2023-11-23T08:15:17.224Z,27.45
2023-11-23T08:16:21.429Z,27.70
2023-11-23T08:17:24.444Z,27.60
2023-11-23T08:18:36.606Z,28.00
2023-11-23T08:19:47.966Z,27.83
2023-11-23T08:20:50.729Z,28.18
2023-11-23T08:21:53.606Z,28.45
2023-11-23T08:22:56.320Z,29.02
2023-11-23T08:23:59.208Z,28.07
2023-11-23T08:25:02.007Z,27.62
2023-11-23T08:26:06.452Z,28.98
2023-11-23T08:27:09.191Z,27.92
2023-11-23T08:28:11.850Z,28.28
2023-11-23T08:29:14.439Z,28.17
2023-11-23T08:30:19.118Z,28.58
2023-11-23T08:31:24.683Z,27.98
2023-11-23T08:32:27.557Z,28.30
2023-11-23T08:33:30.506Z,27.60
2023-11-23T08:34:33.891Z,27.95
2023-11-23T08:35:36.518Z,28.55
2023-11-23T08:36:43.150Z,27.67
2023-11-23T08:37:46.679Z,28.78
2023-11-23T08:38:50.361Z,28.58
2023-11-23T08:39:52.964Z,27.87
2023-11-23T08:40:55.851Z,27.67
2023-11-23T08:41:58.495Z,27.97
2023-11-23T08:43:01.825Z,28.67
2023-11-23T08:44:06.403Z,27.92
2023-11-23T08:45:09.815Z,27.85
2023-11-23T08:46:12.712Z,29.00
2023-11-23T08:47:16.065Z,29.68
2023-11-23T08:48:23.547Z,28.85
2023-11-23T08:49:27.875Z,28.70
2023-11-23T08:50:30.565Z,29.50
2023-11-23T08:51:33.353Z,28.47
2023-11-23T08:52:36.007Z,27.23
2023-11-23T08:53:39.360Z,27.92
2023-11-23T08:54:42.049Z,29.25
2023-11-23T08:55:49.367Z,29.65
2023-11-23T08:56:54.604Z,28.93
2023-11-23T08:57:57.314Z,29.18
2023-11-23T08:58:59.917Z,28.48
2023-11-23T09:00:03.719Z,27.67
2023-11-23T09:01:06.601Z,26.93
2023-11-23T09:02:19.438Z,27.63
2023-11-23T09:03:23.903Z,29.15
2023-11-23T09:04:33.523Z,29.80
2023-11-23T09:05:43.460Z,28.30
2023-11-23T09:06:46.216Z,28.75
2023-11-23T09:07:52.215Z,29.12
2023-11-23T09:08:55.687Z,29.38
2023-11-23T09:09:58.315Z,30.88
2023-11-23T09:11:00.933Z,30.27
2023-11-23T09:12:03.628Z,29.38
2023-11-23T09:13:06.464Z,28.63
2023-11-23T09:14:10.415Z,28.65
2023-11-23T09:15:14.549Z,29.53
2023-11-23T09:16:17.230Z,29.77
2023-11-23T09:17:20.906Z,28.87
2023-11-23T09:18:23.904Z,29.72
2023-11-23T09:19:26.809Z,29.95
2023-11-23T09:20:29.583Z,29.05
2023-11-23T09:21:32.239Z,29.78
2023-11-23T09:22:36.513Z,28.82
2023-11-23T09:23:39.471Z,28.08
2023-11-23T09:24:42.550Z,27.98
2023-11-23T09:25:45.585Z,28.05
2023-11-23T09:26:48.639Z,26.48
2023-11-23T09:27:51.518Z,26.25
2023-11-23T09:28:54.229Z,25.97
2023-11-23T09:29:57.687Z,26.98
2023-11-23T09:31:00.393Z,26.52
2023-11-23T09:32:04.797Z,27.12
2023-11-23T09:33:11.433Z,26.40
2023-11-23T09:34:14.476Z,24.72
2023-11-23T09:35:17.189Z,25.53
2023-11-23T09:36:20.247Z,27.17
2023-11-23T09:37:23.828Z,25.83
2023-11-23T09:38:26.411Z,24.87
2023-11-23T09:39:29.453Z,26.55
2023-11-23T09:40:33.617Z,26.98
2023-11-23T09:41:39.597Z,26.33
2023-11-23T09:42:42.225Z,26.60
2023-11-23T09:43:47.907Z,26.58
2023-11-23T09:47:19.983Z,27.60
2023-11-23T09:48:32.181Z,26.35
2023-11-23T09:49:41.051Z,27.15
2023-11-23T09:51:04.230Z,26.83
2023-11-23T09:52:13.574Z,27.45
2023-11-23T09:53:16.848Z,25.88
2023-11-23T09:54:21.041Z,26.55
2023-11-23T09:55:24.981Z,26.08
2023-11-23T09:56:28.122Z,25.38
2023-11-23T09:57:31.276Z,24.78
2023-11-23T09:58:34.284Z,24.83
2023-11-23T09:59:38.748Z,25.63
2023-11-23T10:00:41.663Z,26.02
2023-11-23T10:01:45.318Z,26.25
2023-11-23T10:02:57.224Z,26.38
2023-11-23T10:04:01.353Z,24.58
2023-11-23T10:05:07.046Z,23.87
2023-11-23T10:06:09.927Z,24.23
2023-11-23T10:07:13.848Z,24.07
2023-11-23T10:08:18.051Z,24.58
2023-11-23T10:09:23.917Z,24.95
2023-11-23T10:10:29.772Z,24.13
2023-11-23T10:11:32.504Z,24.27
2023-11-23T10:12:35.229Z,24.50
2023-11-23T10:13:37.985Z,23.65
2023-11-23T10:14:41.076Z,24.53
2023-11-23T10:15:45.537Z,24.50
2023-11-23T10:16:48.153Z,25.10
2023-11-23T10:17:50.829Z,24.40
2023-11-23T10:18:54.788Z,23.93
2023-11-23T10:20:16.375Z,23.85
2023-11-23T10:21:19.191Z,23.55
2023-11-23T10:22:23.041Z,23.15
2023-11-23T10:23:25.699Z,25.10
2023-11-23T10:24:28.979Z,24.27
2023-11-23T10:25:37.134Z,23.85
2023-11-23T10:26:39.961Z,24.35
2023-11-23T10:27:42.589Z,24.25
2023-11-23T10:28:45.615Z,23.85
2023-11-23T10:29:48.443Z,22.78
2023-11-23T10:30:52.236Z,23.95
2023-11-23T10:31:57.144Z,23.90
2023-11-23T10:33:01.496Z,24.22
2023-11-23T10:34:04.965Z,23.43
2023-11-23T10:35:10.992Z,24.00
2023-11-23T10:36:14.779Z,25.22
2023-11-23T10:37:20.540Z,24.55
2023-11-23T10:38:32.416Z,24.18
2023-11-23T10:39:43.378Z,25.50
2023-11-23T10:40:57.282Z,25.92
2023-11-23T10:42:01.752Z,26.72
2023-11-23T10:43:06.402Z,25.93
2023-11-23T10:44:09.736Z,25.23
2023-11-23T10:45:14.265Z,25.98
2023-11-23T10:46:19.817Z,25.58
2023-11-23T10:47:24.634Z,26.33
2023-11-23T10:48:28.132Z,24.88
2023-11-23T10:49:35.365Z,23.93
2023-11-23T10:50:39.104Z,23.60
2023-11-23T10:51:43.800Z,24.15
2023-11-23T10:52:46.489Z,25.85
2023-11-23T10:53:49.064Z,23.92
2023-11-23T10:54:51.918Z,23.48
2023-11-23T10:55:55.968Z,24.50
2023-11-23T10:57:01.454Z,24.07
2023-11-23T10:58:14.210Z,23.75
2023-11-23T10:59:21.633Z,24.08
2023-11-23T11:00:28.031Z,24.10
2023-11-23T11:01:32.170Z,25.02
2023-11-23T11:02:35.075Z,24.53
2023-11-23T11:03:40.484Z,24.35
2023-11-23T11:04:43.379Z,24.23
2023-11-23T11:05:50.164Z,23.73
2023-11-23T11:06:55.648Z,24.48
2023-11-23T11:08:06.948Z,24.62
2023-11-23T11:09:15.569Z,25.70
2023-11-23T11:10:18.338Z,24.10
2023-11-23T11:11:24.126Z,24.03
2023-11-23T11:12:39.625Z,25.62
2023-11-23T11:13:46.356Z,23.25
2023-11-23T11:14:52.424Z,23.00
2023-11-23T11:15:59.305Z,23.47
2023-11-23T11:17:06.412Z,23.22
2023-11-23T11:18:11.564Z,23.82
2023-11-23T11:19:17.641Z,23.15
2023-11-23T11:20:23.581Z,24.13
2023-11-23T11:21:27.825Z,24.28
2023-11-23T11:22:32.019Z,24.28
2023-11-23T11:23:48.836Z,23.72
2023-11-23T11:24:59.029Z,24.13
2023-11-23T11:26:08.955Z,23.72
2023-11-23T11:29:10.093Z,23.58
2023-11-23T11:30:45.321Z,24.73
2023-11-23T11:32:12.871Z,28.92
2023-11-23T11:33:21.136Z,46.98
2023-11-23T11:34:50.723Z,30.87
2023-11-23T11:36:00.734Z,25.57
2023-11-23T11:37:11.241Z,31.50
2023-11-23T11:38:18.233Z,22.73
2023-11-23T11:39:24.957Z,21.57
2023-11-23T11:40:54.502Z,25.40
2023-11-23T11:42:07.694Z,21.75
2023-11-23T11:43:12.303Z,22.12
2023-11-23T11:44:17.728Z,22.70
2023-11-23T11:45:22.091Z,21.03
2023-11-23T11:46:30.165Z,32.78
2023-11-23T11:47:33.411Z,25.70
2023-11-23T11:48:36.224Z,21.95
2023-11-23T11:49:40.084Z,22.98
2023-11-23T11:50:44.265Z,24.22
2023-11-23T11:51:47.286Z,22.63
2023-11-23T11:52:50.361Z,19.70
2023-11-23T11:53:55.409Z,21.13
2023-11-23T11:54:58.928Z,22.23
2023-11-23T11:56:01.509Z,21.92
2023-11-23T11:57:04.309Z,21.38
2023-11-23T11:58:06.940Z,22.20
2023-11-23T11:59:13.064Z,21.65
2023-11-23T12:00:15.816Z,22.30
2023-11-23T12:01:19.424Z,21.57
2023-11-23T12:02:43.190Z,22.18
2023-11-23T12:03:50.502Z,22.25
2023-11-23T12:05:13.718Z,21.63
2023-11-23T12:06:19.448Z,22.27
2023-11-23T12:07:22.375Z,21.87
2023-11-23T12:08:32.253Z,21.48
2023-11-23T12:09:41.523Z,21.55
2023-11-23T12:10:48.773Z,20.65
2023-11-23T12:11:55.530Z,20.48
2023-11-23T12:12:59.449Z,19.13
2023-11-23T12:14:02.248Z,20.27
2023-11-23T12:15:06.447Z,19.88
2023-11-23T12:16:10.406Z,19.45
2023-11-23T12:17:14.364Z,20.08
2023-11-23T12:18:18.172Z,21.00
2023-11-23T12:19:23.688Z,20.78
2023-11-23T12:20:39.746Z,21.43
2023-11-23T12:21:42.647Z,22.73
2023-11-23T12:22:47.910Z,21.73
2023-11-23T12:23:50.563Z,21.15
2023-11-23T12:24:53.927Z,21.92
2023-11-23T12:25:57.056Z,21.23
2023-11-23T12:27:00.906Z,21.18
2023-11-23T12:28:04.228Z,19.97
2023-11-23T12:29:06.900Z,20.98
2023-11-23T12:30:12.145Z,23.70
2023-11-23T12:31:18.608Z,20.67
2023-11-23T12:32:21.944Z,20.83
2023-11-23T12:33:25.454Z,20.35
2023-11-23T12:34:28.391Z,22.98
2023-11-23T12:35:31.046Z,34.10
2023-11-23T12:36:37.098Z,20.68
2023-11-23T12:37:44.481Z,20.87
2023-11-23T12:38:47.640Z,20.30
2023-11-23T12:39:53.717Z,19.58
2023-11-23T12:40:56.502Z,44.30
2023-11-23T12:41:59.104Z,30.32
2023-11-23T12:43:01.780Z,19.93
2023-11-23T12:44:05.084Z,30.77
2023-11-23T12:45:09.861Z,21.77
2023-11-23T12:46:12.679Z,33.25
2023-11-23T12:47:15.615Z,27.38
2023-11-23T12:48:18.499Z,28.47
2023-11-23T12:49:21.474Z,28.30
2023-11-23T12:50:24.119Z,28.70
2023-11-23T12:51:26.864Z,21.57
2023-11-23T12:52:30.563Z,20.83
2023-11-23T12:53:33.247Z,21.73
2023-11-23T12:54:36.074Z,20.67
2023-11-23T12:55:38.745Z,25.75
2023-11-23T12:56:41.446Z,27.12
2023-11-23T12:57:44.394Z,22.32
2023-11-23T12:58:48.751Z,26.47
2023-11-23T12:59:52.709Z,22.87
2023-11-23T13:00:55.433Z,21.97
2023-11-23T13:02:00.760Z,21.95
2023-11-23T13:03:05.972Z,21.47
2023-11-23T13:04:10.033Z,27.05
2023-11-23T13:05:13.825Z,23.42
2023-11-23T13:06:17.361Z,22.03
2023-11-23T13:07:20.550Z,23.02
2023-11-23T13:08:23.698Z,22.63
2023-11-23T13:09:28.551Z,22.98
2023-11-23T13:10:32.960Z,22.25
2023-11-23T13:11:35.687Z,22.60
2023-11-23T13:12:39.132Z,22.87
2023-11-23T13:13:43.713Z,22.73
2023-11-23T13:14:48.770Z,21.10
2023-11-23T13:15:51.524Z,22.10
2023-11-23T13:16:54.312Z,21.00
2023-11-23T13:17:58.655Z,20.93
2023-11-23T13:19:16.326Z,22.18
2023-11-23T13:20:30.058Z,21.82
2023-11-23T13:21:39.783Z,21.53
2023-11-23T13:22:43.664Z,21.42
2023-11-23T13:23:48.763Z,19.22
2023-11-23T13:24:52.044Z,20.72
2023-11-23T13:25:54.697Z,21.17
2023-11-23T13:26:57.744Z,20.35
2023-11-23T13:28:01.209Z,21.18
2023-11-23T13:29:04.039Z,20.50
2023-11-23T13:30:08.722Z,20.53
2023-11-23T13:31:12.225Z,20.25
2023-11-23T13:32:15.132Z,20.60
2023-11-23T13:33:24.113Z,21.03
2023-11-23T13:34:27.685Z,21.03
2023-11-23T13:35:33.897Z,21.08
2023-11-23T13:36:36.927Z,20.05
2023-11-23T13:37:40.204Z,21.08
2023-11-23T13:38:42.936Z,21.67
2023-11-23T13:39:45.630Z,22.18
2023-11-23T13:40:51.032Z,21.57
2023-11-23T13:41:53.819Z,21.30
2023-11-23T13:42:56.521Z,20.97
2023-11-23T13:43:59.781Z,22.07
2023-11-23T13:45:03.665Z,21.83
2023-11-23T13:46:06.837Z,20.98
2023-11-23T13:47:10.182Z,21.32
2023-11-23T13:48:15.898Z,19.97
2023-11-23T13:49:18.550Z,22.30